Time;durP1;ratioP1;P1;durP2;ratioP2;P2;SDS_P1;SDS_P2;PMS_P1;PMS_P2;Temp;Humidity;BMP_temperature;BMP_pressure;BME280_temperature;BME280_humidity;BME280_pressure;Samples;Min_cycle;Max_cycle;Signal;HPM_P1;HPM_P2
2022/10/03 00:01:47;;;;;;;1999.90;999.90;;;17.00;99.90;;;;;;4991595;28;20077;-79
2022/10/03 00:04:39;;;;;;;1999.90;999.90;;;16.90;99.90;;;;;;4992049;28;20037;-79
2022/10/03 00:07:24;;;;;;;1999.90;999.90;;;17.00;99.90;;;;;;4992821;28;20127;-78
2022/10/03 00:10:02;;;;;;;1999.90;999.90;;;17.00;99.90;;;;;;4992586;28;20448;-78
2022/10/03 00:12:50;;;;;;;1999.90;999.90;;;17.00;99.90;;;;;;4991790;28;20101;-78
2022/10/03 00:15:26;;;;;;;1999.90;999.90;;;17.00;99.90;;;;;;4992355;28;20494;-76
2022/10/03 00:18:22;;;;;;;1999.90;999.90;;;17.10;99.90;;;;;;4991708;28;20036;-76
2022/10/03 00:21:16;;;;;;;1999.90;999.90;;;17.00;99.90;;;;;;4991907;28;20113;-76
2022/10/03 00:24:03;;;;;;;1999.90;999.90;;;17.00;99.90;;;;;;4992125;28;20553;-76
2022/10/03 00:26:43;;;;;;;1999.90;999.90;;;17.00;99.90;;;;;;4992115;28;20589;-76
2022/10/03 00:29:34;;;;;;;1999.90;999.90;;;17.00;99.90;;;;;;4992148;28;20109;-76
2022/10/03 00:32:05;;;;;;;1999.90;999.90;;;17.00;99.90;;;;;;4992556;28;20038;-77
2022/10/03 00:34:49;;;;;;;1999.90;999.90;;;17.00;99.90;;;;;;4993798;28;20057;-76
2022/10/03 00:37:55;;;;;;;1999.90;999.90;;;17.00;99.90;;;;;;4992215;28;20442;-75
2022/10/03 00:40:34;;;;;;;1999.90;999.90;;;17.00;99.90;;;;;;4993735;28;20034;-76
2022/10/03 00:43:28;;;;;;;1999.90;999.90;;;17.00;99.90;;;;;;4994039;28;20022;-75
2022/10/03 00:46:00;;;;;;;1999.90;999.90;;;16.80;99.90;;;;;;4993955;28;20030;-77
2022/10/03 00:48:37;;;;;;;1999.90;999.90;;;16.80;99.90;;;;;;4993423;28;20034;-75
2022/10/03 00:51:12;;;;;;;1999.90;999.90;;;16.70;99.90;;;;;;4993947;28;20514;-75
2022/10/03 00:53:56;;;;;;;1999.90;999.90;;;16.70;99.90;;;;;;4993887;28;20553;-76
2022/10/03 00:56:39;;;;;;;1999.90;999.90;;;16.70;99.90;;;;;;4993581;28;20034;-76
2022/10/03 00:59:32;;;;;;;1999.90;999.90;;;16.70;99.90;;;;;;4993952;28;20018;-77
2022/10/03 01:02:16;;;;;;;1999.90;999.90;;;16.70;99.90;;;;;;4993602;28;20048;-77
2022/10/03 01:05:11;;;;;;;1999.90;999.90;;;16.70;99.90;;;;;;4993639;28;20109;-77
2022/10/03 01:07:37;;;;;;;1999.90;999.90;;;16.70;99.90;;;;;;4993649;28;20056;-76
2022/10/03 01:10:21;;;;;;;1999.90;999.90;;;16.70;99.90;;;;;;4993655;28;20041;-76
2022/10/03 01:13:54;;;;;;;1999.90;999.90;;;16.70;99.90;;;;;;4992760;28;20038;-77
2022/10/03 01:16:25;;;;;;;1999.90;999.90;;;16.70;99.90;;;;;;4963408;28;20034;-77
2022/10/03 01:18:51;;;;;;;1999.90;999.90;;;16.70;99.90;;;;;;4988364;28;20026;-77
2022/10/03 01:21:43;;;;;;;1999.90;999.90;;;16.70;99.90;;;;;;4992703;28;20545;-77
2022/10/03 01:24:58;;;;;;;1999.90;999.90;;;16.70;99.90;;;;;;4992673;28;20042;-77
2022/10/03 01:30:21;;;;;;;1999.90;999.90;;;16.50;99.90;;;;;;5006278;28;20034;-77
2022/10/03 01:30:21;;;;;;;1999.90;999.90;;;16.50;99.90;;;;;;4993062;28;20478;-77
2022/10/03 01:33:17;;;;;;;1999.90;999.90;;;16.50;99.90;;;;;;4992998;28;20031;-76
2022/10/03 01:35:43;;;;;;;1999.90;999.90;;;16.50;99.90;;;;;;4991950;28;20034;-76
2022/10/03 01:38:44;;;;;;;1999.90;999.90;;;16.40;99.90;;;;;;4991719;28;20069;-77
2022/10/03 01:41:47;;;;;;;1999.90;999.90;;;16.30;99.90;;;;;;4974537;28;20038;-77
2022/10/03 01:44:39;;;;;;;1999.90;999.90;;;16.30;99.90;;;;;;4973659;28;20050;-77
2022/10/03 01:47:17;;;;;;;1999.90;999.90;;;16.30;99.90;;;;;;4973852;28;20434;-77
2022/10/03 01:49:47;;;;;;;1999.90;999.90;;;16.40;99.90;;;;;;4973176;28;20027;-77
2022/10/03 01:52:45;;;;;;;1999.90;999.90;;;16.40;99.90;;;;;;4985795;28;20034;-77
2022/10/03 01:55:22;;;;;;;1999.90;999.90;;;16.30;99.90;;;;;;4992913;28;20034;-77
2022/10/03 01:58:00;;;;;;;1999.90;999.90;;;16.30;99.90;;;;;;4992975;28;20101;-77
2022/10/03 02:00:35;;;;;;;1999.90;999.90;;;16.30;99.90;;;;;;4992834;28;20026;-77
2022/10/03 02:03:24;;;;;;;1999.90;999.90;;;16.20;99.90;;;;;;4992931;28;20038;-77
2022/10/03 02:06:30;;;;;;;1999.90;999.90;;;16.10;99.90;;;;;;4992420;28;20035;-77
2022/10/03 02:09:33;;;;;;;1999.90;999.90;;;16.10;99.90;;;;;;4995356;28;20057;-78
2022/10/03 02:12:20;;;;;;;1999.90;999.90;;;16.00;99.90;;;;;;4992504;28;20034;-77
2022/10/03 02:15:13;;;;;;;1999.90;999.90;;;16.00;99.90;;;;;;4984481;28;20109;-77
2022/10/03 02:17:58;;;;;;;1999.90;999.90;;;16.00;99.90;;;;;;4981519;28;20018;-77
2022/10/03 02:20:31;;;;;;;1999.90;999.90;;;16.10;99.90;;;;;;4990760;28;20034;-78
2022/10/03 02:22:58;;;;;;;1999.90;999.90;;;16.10;99.90;;;;;;4992700;28;20037;-78
2022/10/03 02:26:02;;;;;;;1999.90;999.90;;;16.10;99.90;;;;;;4994617;28;20434;-78
2022/10/03 02:28:37;;;;;;;;;;;16.10;99.90;;;;;;4996583;28;20034;-77
2022/10/03 02:31:34;;;;;;;1999.90;999.90;;;16.20;99.90;;;;;;4995224;28;19909;-78
2022/10/03 02:34:34;;;;;;;1999.90;999.90;;;16.20;99.90;;;;;;4996161;28;20489;-78
2022/10/03 02:37:11;;;;;;;1999.90;999.90;;;16.20;99.90;;;;;;4996018;28;20031;-78
2022/10/03 02:39:52;;;;;;;1999.90;999.90;;;16.10;99.90;;;;;;4995669;28;20023;-78
2022/10/03 02:42:42;;;;;;;1999.90;999.90;;;16.00;99.90;;;;;;4996122;28;20092;-78
2022/10/03 02:45:26;;;;;;;1999.90;999.90;;;16.00;99.90;;;;;;4996391;28;20400;-78
2022/10/03 02:48:16;;;;;;;1999.90;999.90;;;16.00;99.90;;;;;;4994964;28;20549;-78
2022/10/03 02:50:57;;;;;;;1999.90;999.90;;;16.00;99.90;;;;;;4995851;28;20497;-78
2022/10/03 02:54:14;;;;;;;1999.90;999.90;;;16.00;99.90;;;;;;4994871;28;20058;-78
2022/10/03 02:57:03;;;;;;;1999.90;999.90;;;16.00;99.90;;;;;;4994980;28;20490;-78
2022/10/03 03:00:11;;;;;;;1999.90;999.90;;;16.10;99.90;;;;;;4994755;28;20158;-78
2022/10/03 03:02:39;;;;;;;1999.90;999.90;;;16.00;99.90;;;;;;4995843;28;20034;-78
2022/10/03 03:05:23;;;;;;;1999.90;999.90;;;16.10;99.90;;;;;;4995912;28;20481;-78
2022/10/03 03:08:01;;;;;;;1999.90;999.90;;;16.10;99.90;;;;;;4995775;28;20078;-78
2022/10/03 03:10:32;;;;;;;1999.90;999.90;;;16.10;99.90;;;;;;4994136;28;20030;-78
2022/10/03 03:13:16;;;;;;;1999.90;999.90;;;16.10;99.90;;;;;;4995297;28;20080;-78
2022/10/03 03:16:13;;;;;;;1999.90;999.90;;;16.20;99.90;;;;;;4980042;28;20062;-79
2022/10/03 03:18:52;;;;;;;1999.90;999.90;;;16.10;99.90;;;;;;4991766;28;20030;-78
2022/10/03 03:21:37;;;;;;;1999.90;999.90;;;16.10;99.90;;;;;;4993790;28;20033;-78
2022/10/03 03:24:41;;;;;;;1999.90;999.90;;;16.10;99.90;;;;;;4993940;28;20030;-78
2022/10/03 03:27:39;;;;;;;1999.90;999.90;;;16.10;99.90;;;;;;5013185;28;20433;-78
2022/10/03 03:30:19;;;;;;;1999.90;999.90;;;16.10;99.90;;;;;;5008229;28;20040;-78
2022/10/03 03:32:55;;;;;;;1999.90;999.90;;;16.00;99.90;;;;;;5012497;28;20033;-79
2022/10/03 03:35:45;;;;;;;1999.90;999.90;;;16.10;99.90;;;;;;5012370;28;20076;-78
2022/10/03 03:38:19;;;;;;;1999.90;999.90;;;16.10;99.90;;;;;;5011575;28;20405;-78
2022/10/03 03:41:00;;;;;;;1999.90;999.90;;;16.10;99.90;;;;;;5012408;28;20505;-78
2022/10/03 03:43:34;;;;;;;1999.90;999.90;;;16.10;99.90;;;;;;5012758;28;20034;-78
2022/10/03 03:46:37;;;;;;;1999.90;999.90;;;16.00;99.90;;;;;;5012454;28;20030;-78
2022/10/03 03:49:14;;;;;;;1999.90;999.90;;;15.90;99.90;;;;;;5012228;28;20527;-78
2022/10/03 03:51:57;;;;;;;1999.90;999.90;;;15.90;99.90;;;;;;5012451;28;20432;-78
2022/10/03 03:54:54;;;;;;;1999.90;999.90;;;16.00;99.90;;;;;;5012239;28;20037;-79
2022/10/03 03:57:48;;;;;;;1999.90;999.90;;;15.90;99.90;;;;;;5012489;28;20133;-79
2022/10/03 04:00:14;;;;;;;;;;;15.90;99.90;;;;;;5007492;28;20034;-79
2022/10/03 04:03:11;;;;;;;1999.90;999.90;;;15.90;99.90;;;;;;4975343;28;19929;-79
2022/10/03 04:05:49;;;;;;;1999.90;999.90;;;15.90;99.90;;;;;;4975469;28;20034;-79
2022/10/03 04:08:33;;;;;;;1999.90;999.90;;;15.90;99.90;;;;;;4975295;28;20506;-79
2022/10/03 04:11:32;;;;;;;1999.90;999.90;;;15.90;99.90;;;;;;4975205;28;20022;-79
2022/10/03 04:14:25;;;;;;;1999.90;999.90;;;15.90;99.90;;;;;;4974877;28;20051;-79
2022/10/03 04:20:03;;;;;;;1999.90;999.90;;;15.90;99.90;;;;;;4994390;28;20037;-79
2022/10/03 04:22:52;;;;;;;1999.90;999.90;;;15.90;99.90;;;;;;4994374;28;20033;-79
2022/10/03 04:25:26;;;;;;;1999.90;999.90;;;15.90;99.90;;;;;;4994172;28;20569;-79
2022/10/03 04:28:09;;;;;;;1999.90;999.90;;;15.90;99.90;;;;;;4993139;28;20393;-79
2022/10/03 04:31:10;;;;;;;1999.90;999.90;;;15.90;99.90;;;;;;4994194;28;20057;-79
2022/10/03 04:34:07;;;;;;;1999.90;999.90;;;15.90;99.90;;;;;;5011326;28;20030;-79
2022/10/03 04:36:33;;;;;;;1999.90;999.90;;;15.90;99.90;;;;;;4978349;28;20418;-79
2022/10/03 04:39:23;;;;;;;1999.90;999.90;;;15.90;99.90;;;;;;4988207;28;20025;-79
2022/10/03 04:42:13;;;;;;;1999.90;999.90;;;15.90;99.90;;;;;;4974250;28;20398;-79
2022/10/03 04:44:51;;;;;;;1999.90;999.90;;;16.00;99.90;;;;;;4972912;28;20065;-79
2022/10/03 04:47:25;;;;;;;1999.90;999.90;;;16.00;99.90;;;;;;4973065;28;20383;-79
2022/10/03 04:50:10;;;;;;;1999.90;999.90;;;16.00;99.90;;;;;;4972976;28;20023;-79
2022/10/03 04:53:02;;;;;;;1999.90;999.90;;;15.90;99.90;;;;;;4974443;28;20031;-79
2022/10/03 04:55:48;;;;;;;1999.90;999.90;;;15.90;99.90;;;;;;4974527;28;20490;-79
2022/10/03 04:58:38;;;;;;;1999.90;999.90;;;15.90;99.90;;;;;;4978663;28;20027;-79
2022/10/03 05:01:23;;;;;;;1999.90;999.90;;;15.90;99.90;;;;;;4986083;28;20038;-79
2022/10/03 05:03:53;;;;;;;1999.90;999.90;;;15.90;99.90;;;;;;4974015;28;20023;-79
2022/10/03 05:06:27;;;;;;;1999.90;999.90;;;15.90;99.90;;;;;;4973830;28;20030;-79
2022/10/03 05:09:12;;;;;;;1999.90;999.90;;;15.90;99.90;;;;;;4972666;28;20035;-79
2022/10/03 05:11:48;;;;;;;1999.90;999.90;;;15.80;99.90;;;;;;4973804;28;20038;-79
2022/10/03 05:14:48;;;;;;;1999.90;999.90;;;15.90;99.90;;;;;;4973641;28;20125;-79
2022/10/03 05:17:23;;;;;;;1999.90;999.90;;;15.90;99.90;;;;;;4977338;28;20365;-79
2022/10/03 05:20:01;;;;;;;1999.90;999.90;;;15.80;99.90;;;;;;4992838;28;20105;-79
2022/10/03 05:22:36;;;;;;;1999.90;999.90;;;15.80;99.90;;;;;;4991800;28;20049;-79
2022/10/03 05:25:26;;;;;;;1999.90;999.90;;;15.80;99.90;;;;;;4992991;28;20034;-79
2022/10/03 05:28:15;;;;;;;1999.90;999.90;;;15.80;99.90;;;;;;5001357;28;20032;-79
2022/10/03 05:30:52;;;;;;;1999.90;999.90;;;15.80;99.90;;;;;;4996426;28;20430;-79
2022/10/03 05:33:25;;;;;;;1999.90;999.90;;;15.80;99.90;;;;;;4976777;28;20065;-79
2022/10/03 05:36:22;;;;;;;1999.90;999.90;;;15.90;99.90;;;;;;4982298;28;20446;-79
2022/10/03 05:39:17;;;;;;;1999.90;999.90;;;15.90;99.90;;;;;;4977543;28;20045;-79
2022/10/03 05:41:53;;;;;;;1999.90;999.90;;;15.90;99.90;;;;;;4991173;28;20033;-79
2022/10/03 05:44:29;;;;;;;1999.90;999.90;;;15.90;99.90;;;;;;4992381;28;20039;-79
2022/10/03 05:46:54;;;;;;;1999.90;999.90;;;15.90;99.90;;;;;;4992583;28;20026;-79
2022/10/03 05:49:55;;;;;;;1999.90;999.90;;;15.90;99.90;;;;;;4991695;28;20109;-79
2022/10/03 05:52:44;;;;;;;1999.90;999.90;;;15.90;99.90;;;;;;4991574;28;20102;-79
2022/10/03 05:55:52;;;;;;;1999.90;999.90;;;15.90;99.90;;;;;;4992140;28;20482;-79
2022/10/03 05:58:36;;;;;;;1999.90;999.90;;;15.90;99.90;;;;;;4991816;28;20064;-79
2022/10/03 06:01:20;;;;;;;1999.90;999.90;;;15.90;99.90;;;;;;4998131;28;20342;-81
2022/10/03 06:04:18;;;;;;;1999.90;999.90;;;15.90;99.90;;;;;;4998667;28;20431;-80
2022/10/03 06:07:01;;;;;;;1999.90;999.90;;;15.90;99.90;;;;;;4998687;28;20046;-80
2022/10/03 06:09:49;;;;;;;1999.90;999.90;;;15.90;99.90;;;;;;4998912;28;20026;-80
2022/10/03 06:12:23;;;;;;;1999.90;999.90;;;15.90;99.90;;;;;;4997218;28;20121;-80
2022/10/03 06:14:56;;;;;;;1999.90;999.90;;;15.90;99.90;;;;;;4989897;28;20022;-80
2022/10/03 06:17:43;;;;;;;1999.90;999.90;;;15.80;99.90;;;;;;4994324;28;20392;-80
2022/10/03 06:20:45;;;;;;;1999.90;999.90;;;15.80;99.90;;;;;;4998237;28;20077;-80
2022/10/03 06:23:35;;;;;;;1999.90;999.90;;;15.90;99.90;;;;;;4996983;28;20552;-80
2022/10/03 06:26:35;;;;;;;1999.90;999.90;;;15.90;99.90;;;;;;4997025;28;20058;-82
2022/10/03 06:29:37;;;;;;;1999.90;999.90;;;15.90;99.90;;;;;;4985100;28;20453;-81
2022/10/03 06:32:26;;;;;;;1999.90;999.90;;;15.90;99.90;;;;;;4995374;28;20077;-81
2022/10/03 06:35:10;;;;;;;1999.90;999.90;;;15.90;99.90;;;;;;4998145;28;20109;-82
2022/10/03 06:37:54;;;;;;;1999.90;999.90;;;15.90;99.90;;;;;;4990700;28;20034;-81
2022/10/03 06:40:39;;;;;;;1999.90;999.90;;;15.90;99.90;;;;;;4981788;28;20030;-81
2022/10/03 06:43:28;;;;;;;1999.90;999.90;;;15.90;99.90;;;;;;4990977;28;20026;-82
2022/10/03 06:45:54;;;;;;;1999.90;999.90;;;15.90;99.90;;;;;;4988951;28;20030;-81
2022/10/03 06:48:20;;;;;;;1999.90;999.90;;;15.90;99.90;;;;;;4991270;28;20538;-81
2022/10/03 06:51:30;;;;;;;1999.90;999.90;;;16.00;99.90;;;;;;4991077;28;20026;-81
2022/10/03 06:54:22;;;;;;;1999.90;999.90;;;16.00;99.90;;;;;;4994522;28;20386;-81
2022/10/03 06:57:13;;;;;;;1999.90;999.90;;;16.00;99.90;;;;;;4989632;28;20540;-81
2022/10/03 07:00:03;;;;;;;1999.90;999.90;;;16.00;99.90;;;;;;4986065;28;20383;-81
2022/10/03 07:02:48;;;;;;;1999.90;999.90;;;16.10;99.90;;;;;;4994015;28;20053;-81
2022/10/03 07:05:40;;;;;;;1999.90;999.90;;;16.10;99.90;;;;;;4989851;28;20425;-81
2022/10/03 07:08:18;;;;;;;1999.90;999.90;;;16.10;99.90;;;;;;4995047;28;20101;-81
2022/10/03 07:11:14;;;;;;;1999.90;999.90;;;16.10;99.90;;;;;;4987134;28;20136;-81
2022/10/03 07:14:17;;;;;;;1999.90;999.90;;;16.00;99.90;;;;;;4988140;28;20076;-81
2022/10/03 07:16:45;;;;;;;1999.90;999.90;;;16.00;99.90;;;;;;4989042;28;20040;-81
2022/10/03 07:19:21;;;;;;;1999.90;999.90;;;16.10;99.90;;;;;;4991154;28;20073;-81
2022/10/03 07:21:55;;;;;;;1999.90;999.90;;;16.20;99.90;;;;;;4989500;28;20030;-81
2022/10/03 07:25:02;;;;;;;1999.90;999.90;;;16.30;99.90;;;;;;4985528;28;20106;-81
2022/10/03 07:27:49;;;;;;;1999.90;999.90;;;16.40;99.90;;;;;;4989405;28;20109;-81
2022/10/03 07:30:27;;;;;;;1999.90;999.90;;;16.40;99.90;;;;;;4986003;28;20038;-81
2022/10/03 07:33:05;;;;;;;1999.90;999.90;;;16.50;99.90;;;;;;4992923;28;20030;-81
2022/10/03 07:38:59;;;;;;;1999.90;999.90;;;16.50;99.90;;;;;;4991570;28;20080;-81
2022/10/03 07:41:52;;;;;;;1999.90;999.90;;;16.40;99.90;;;;;;4986491;28;20038;-81
2022/10/03 07:44:39;;;;;;;1999.90;999.90;;;16.50;99.90;;;;;;4990224;28;20058;-81
2022/10/03 07:47:25;;;;;;;1999.90;999.90;;;16.60;99.90;;;;;;4988463;28;20102;-80
2022/10/03 07:50:05;;;;;;;1999.90;999.90;;;16.60;99.90;;;;;;4990614;28;20552;-81
2022/10/03 07:52:58;;;;;;;1999.90;999.90;;;16.80;99.90;;;;;;4988158;28;20511;-81
2022/10/03 07:55:29;;;;;;;1999.90;999.90;;;16.90;99.90;;;;;;4986089;28;20027;-80
2022/10/03 07:58:18;;;;;;;1999.90;999.90;;;17.20;99.90;;;;;;4989756;28;20273;-80
2022/10/03 08:01:21;;;;;;;1999.90;999.90;;;17.40;99.90;;;;;;4987612;28;20030;-80
2022/10/03 08:04:06;;;;;;;1999.90;999.90;;;17.50;99.90;;;;;;4986403;28;20038;-79
2022/10/03 08:07:06;;;;;;;1999.90;999.90;;;17.50;99.90;;;;;;4990828;28;20050;-80
2022/10/03 08:09:50;;;;;;;1999.90;999.90;;;17.80;99.90;;;;;;4983669;28;20041;-81
2022/10/03 08:12:41;;;;;;;1999.90;999.90;;;17.70;99.90;;;;;;4987932;28;20058;-79
2022/10/03 08:15:29;;;;;;;1999.90;999.90;;;17.80;99.90;;;;;;4988295;28;20030;-79
2022/10/03 08:18:05;;;;;;;1999.90;999.90;;;17.90;99.90;;;;;;4989263;28;20030;-79
2022/10/03 08:20:43;;;;;;;1999.90;999.90;;;18.20;99.90;;;;;;4987991;28;20121;-80
2022/10/03 08:23:30;;;;;;;1999.90;999.90;;;18.50;99.90;;;;;;4989850;28;20034;-80
2022/10/03 08:26:16;;;;;;;1999.90;999.90;;;18.60;99.90;;;;;;4990880;28;20041;-80
2022/10/03 08:28:53;;;;;;;1999.90;999.90;;;18.90;99.90;;;;;;4986573;28;20506;-80
2022/10/03 08:31:25;;;;;;;1999.90;999.90;;;19.00;99.90;;;;;;4989263;28;20026;-79
2022/10/03 08:34:12;;;;;;;1999.90;999.90;;;19.00;99.90;;;;;;4991221;28;20073;-80
2022/10/03 08:36:59;;;;;;;1999.90;999.90;;;18.80;99.90;;;;;;4982774;28;20481;-79
2022/10/03 08:39:59;;;;;;;1999.90;999.90;;;18.80;99.90;;;;;;4985985;28;20149;-79
2022/10/03 08:42:42;;;;;;;1999.90;999.90;;;18.90;99.90;;;;;;4978972;28;20034;-80
2022/10/03 08:45:37;;;;;;;1999.90;999.90;;;18.80;99.90;;;;;;4982031;28;20034;-81
2022/10/03 08:48:23;;;;;;;1999.90;999.90;;;18.80;99.90;;;;;;4980878;28;20030;-80
2022/10/03 08:50:49;;;;;;;1999.90;999.90;;;19.00;99.90;;;;;;4984998;28;20034;-80
2022/10/03 08:53:17;;;;;;;1999.90;999.90;;;19.00;99.90;;;;;;4988098;28;20514;-80
2022/10/03 08:55:44;;;;;;;1999.90;999.90;;;19.10;99.90;;;;;;4989270;28;20030;-80
2022/10/03 08:58:36;;;;;;;1999.90;999.90;;;19.30;99.90;;;;;;4989293;28;20408;-78
2022/10/03 09:01:34;;;;;;;1999.90;999.90;;;19.60;99.90;;;;;;4970948;28;20038;-81
2022/10/03 09:04:15;;;;;;;1999.90;999.90;;;19.80;99.90;;;;;;4989497;28;20022;-79
2022/10/03 09:07:04;;;;;;;1999.90;999.90;;;19.80;99.90;;;;;;4989875;28;20058;-80
2022/10/03 09:09:55;;;;;;;1999.90;999.90;;;19.90;99.90;;;;;;4989973;28;20097;-78
2022/10/03 09:12:49;;;;;;;1999.90;999.90;;;20.10;99.90;;;;;;4988457;28;20102;-80
2022/10/03 09:15:40;;;;;;;1999.90;999.90;;;20.60;99.90;;;;;;4983405;28;20030;-79
2022/10/03 09:18:36;;;;;;;1999.90;999.90;;;20.70;99.90;;;;;;4987531;28;20027;-80
2022/10/03 09:21:13;;;;;;;1999.90;999.90;;;20.60;99.90;;;;;;4988167;28;20486;-79
2022/10/03 09:23:59;;;;;;;1999.90;999.90;;;20.60;99.90;;;;;;4976783;28;20572;-81
2022/10/03 09:26:42;;;;;;;1999.90;999.90;;;20.70;99.90;;;;;;4979778;28;20019;-80
2022/10/03 09:29:45;;;;;;;1999.90;999.90;;;20.60;99.90;;;;;;4987779;28;20180;-81
2022/10/03 09:32:29;;;;;;;1999.90;999.90;;;20.80;99.90;;;;;;4985494;28;20061;-80
2022/10/03 09:35:32;;;;;;;1999.90;999.90;;;20.90;99.90;;;;;;4985103;28;20056;-80
2022/10/03 09:38:19;;;;;;;1999.90;999.90;;;21.00;99.90;;;;;;4989512;28;20025;-81
2022/10/03 09:41:10;;;;;;;1999.90;999.90;;;21.00;99.90;;;;;;4987683;28;20109;-81
2022/10/03 09:43:48;;;;;;;1999.90;999.90;;;21.00;99.90;;;;;;4985003;28;20477;-79
2022/10/03 09:46:20;;;;;;;1999.90;999.90;;;21.00;99.90;;;;;;4988130;28;20042;-80
2022/10/03 09:49:24;;;;;;;1999.90;999.90;;;20.90;99.90;;;;;;4987865;28;20037;-77
2022/10/03 09:52:09;;;;;;;1999.90;999.90;;;21.20;99.90;;;;;;4983552;28;20103;-81
2022/10/03 09:54:34;;;;;;;1999.90;999.90;;;21.40;99.90;;;;;;4987432;28;20030;-79
2022/10/03 09:57:24;;;;;;;1999.90;999.90;;;21.30;99.90;;;;;;4978823;28;20029;-80
2022/10/03 10:00:02;;;;;;;1999.90;999.90;;;21.30;99.90;;;;;;4981282;28;20038;-78
2022/10/03 10:02:55;;;;;;;1999.90;999.90;;;21.80;99.90;;;;;;4988423;28;20049;-80
2022/10/03 10:05:24;;;;;;;1999.90;999.90;;;21.70;99.90;;;;;;4988251;28;20030;-81
2022/10/03 10:08:08;;;;;;;1999.90;999.90;;;21.50;99.90;;;;;;4988814;28;20092;-79
2022/10/03 10:10:55;;;;;;;1999.90;999.90;;;21.50;99.90;;;;;;4989830;28;20100;-81
2022/10/03 10:13:39;;;;;;;1999.90;999.90;;;21.60;99.90;;;;;;5011632;28;20030;-80
2022/10/03 10:16:13;;;;;;;1999.90;999.90;;;21.60;99.90;;;;;;4988932;28;20081;-79
2022/10/03 10:18:39;;;;;;;1999.90;999.90;;;21.30;99.90;;;;;;4986189;28;20046;-82
2022/10/03 10:21:19;;;;;;;1999.90;999.90;;;21.20;99.90;;;;;;4990023;28;20509;-82
2022/10/03 10:23:54;;;;;;;1999.90;999.90;;;21.00;99.90;;;;;;4990165;28;20487;-82
2022/10/03 10:26:47;;;;;;;1999.90;999.90;;;21.00;99.90;;;;;;4988682;28;20046;-82
2022/10/03 10:29:21;;;;;;;1999.90;999.90;;;20.80;99.90;;;;;;4982308;28;20316;-79
2022/10/03 10:32:22;;;;;;;1999.90;999.90;;;20.70;99.90;;;;;;4988307;28;20042;-79
2022/10/03 10:34:59;;;;;;;1999.90;999.90;;;20.80;99.90;;;;;;4989112;28;20026;-78
2022/10/03 10:37:33;;;;;;;1999.90;999.90;;;20.60;99.90;;;;;;4988319;28;20026;-81
2022/10/03 10:40:20;;;;;;;1999.90;999.90;;;20.60;99.90;;;;;;4987746;28;20121;-79
2022/10/03 10:43:05;;;;;;;1999.90;999.90;;;21.00;99.90;;;;;;4985433;28;20397;-81
2022/10/03 10:45:38;;;;;;;1999.90;999.90;;;21.20;99.90;;;;;;4987412;28;20045;-81
2022/10/03 10:48:28;;;;;;;1999.90;999.90;;;21.40;99.90;;;;;;4989372;28;20042;-81
2022/10/03 10:51:24;;;;;;;1999.90;999.90;;;21.50;99.90;;;;;;4990897;28;20058;-81
2022/10/03 10:54:06;;;;;;;1999.90;999.90;;;21.50;99.90;;;;;;4991778;28;20034;-78
2022/10/03 10:56:56;;;;;;;1999.90;999.90;;;21.40;99.90;;;;;;4991979;28;20389;-81
2022/10/03 10:59:58;;;;;;;1999.90;999.90;;;21.60;99.90;;;;;;4988171;28;20030;-81
2022/10/03 11:02:42;;;;;;;1999.90;999.90;;;22.00;99.90;;;;;;4990659;28;20030;-81
2022/10/03 11:05:33;;;;;;;1999.90;999.90;;;22.30;99.90;;;;;;4989340;28;20038;-78
2022/10/03 11:08:17;;;;;;;1999.90;999.90;;;22.50;99.90;;;;;;4987359;28;20078;-79
2022/10/03 11:11:18;;;;;;;1999.90;999.90;;;22.50;99.90;;;;;;4989042;28;20556;-81
2022/10/03 11:14:15;;;;;;;1999.90;999.90;;;22.20;99.90;;;;;;4973347;28;20401;-79
2022/10/03 11:17:01;;;;;;;1999.90;999.90;;;21.90;99.90;;;;;;4985934;28;20505;-81
2022/10/03 11:19:45;;;;;;;1999.90;999.90;;;22.30;99.90;;;;;;4989124;28;20106;-79
2022/10/03 11:22:29;;;;;;;1999.90;999.90;;;22.60;99.90;;;;;;4981993;28;20029;-79
2022/10/03 11:25:42;;;;;;;1999.90;999.90;;;22.30;99.90;;;;;;4982633;28;20038;-81
2022/10/03 11:29:01;;;;;;;1999.90;999.90;;;22.00;99.90;;;;;;4989931;28;20045;-81
2022/10/03 11:31:46;;;;;;;1999.90;999.90;;;22.00;99.90;;;;;;4989643;28;20521;-78
2022/10/03 11:34:11;;;;;;;1999.90;999.90;;;22.10;99.90;;;;;;4989883;28;20068;-78
2022/10/03 11:36:43;;;;;;;1999.90;999.90;;;22.10;99.90;;;;;;4989667;28;20026;-81
2022/10/03 11:39:44;;;;;;;1999.90;999.90;;;22.70;99.90;;;;;;4989039;28;20413;-81
2022/10/03 11:42:18;;;;;;;1999.90;999.90;;;23.30;99.90;;;;;;4988430;28;20121;-81
2022/10/03 11:44:59;;;;;;;1999.90;999.90;;;23.40;99.90;;;;;;4989545;28;20064;-78
2022/10/03 11:47:48;;;;;;;1999.90;999.90;;;23.40;99.90;;;;;;4983084;28;20112;-78
2022/10/03 11:50:42;;;;;;;1999.90;999.90;;;23.30;99.90;;;;;;4986457;28;20076;-81
2022/10/03 11:53:14;;;;;;;1999.90;999.90;;;23.30;99.90;;;;;;4988695;28;20037;-81
2022/10/03 11:55:57;;;;;;;1999.90;999.90;;;23.30;99.90;;;;;;4983407;28;20033;-81
2022/10/03 11:58:23;;;;;;;1999.90;999.90;;;22.90;99.90;;;;;;4986602;28;20529;-78
2022/10/03 12:01:16;;;;;;;1999.90;999.90;;;22.80;99.90;;;;;;4984295;28;20050;-78
2022/10/03 12:03:58;;;;;;;1999.90;999.90;;;23.00;99.90;;;;;;4991521;28;20073;-81
2022/10/03 12:10:03;;;;;;;1999.90;999.90;;;23.90;99.90;;;;;;4992078;28;20161;-81
2022/10/03 12:13:11;;;;;;;1999.90;999.90;;;23.80;99.90;;;;;;4990641;28;20026;-79
2022/10/03 12:15:44;;;;;;;1999.90;999.90;;;23.50;99.90;;;;;;5005672;28;20508;-81
2022/10/03 12:18:41;;;;;;;1999.90;999.90;;;23.30;99.90;;;;;;5007129;28;20133;-81
2022/10/03 12:21:15;;;;;;;1999.90;999.90;;;23.20;99.90;;;;;;5003798;28;20105;-78
2022/10/03 12:23:51;;;;;;;1999.90;999.90;;;22.90;99.90;;;;;;5008529;28;20092;-82
2022/10/03 12:26:51;;;;;;;1999.90;999.90;;;23.30;99.90;;;;;;4992450;28;20022;-81
2022/10/03 12:29:20;;;;;;;1999.90;999.90;;;24.00;99.90;;;;;;4983289;28;20087;-82
2022/10/03 12:32:00;;;;;;;1999.90;999.90;;;24.60;99.90;;;;;;5007553;28;20033;-79
2022/10/03 12:34:38;;;;;;;1999.90;999.90;;;24.70;99.90;;;;;;5005119;28;20156;-82
2022/10/03 12:37:15;;;;;;;1999.90;999.90;;;24.60;99.90;;;;;;5007731;28;20425;-78
2022/10/03 12:39:59;;;;;;;1999.90;999.90;;;24.10;99.90;;;;;;5005466;28;20036;-78
2022/10/03 12:42:57;;;;;;;1999.90;999.90;;;23.60;99.90;;;;;;5008424;28;20037;-82
2022/10/03 12:45:34;;;;;;;1999.90;999.90;;;23.10;99.90;;;;;;4984578;28;20042;-82
2022/10/03 12:48:12;;;;;;;1999.90;999.90;;;22.60;99.90;;;;;;5005435;28;20040;-82
2022/10/03 12:51:16;;;;;;;1999.90;999.90;;;22.30;99.90;;;;;;4986446;28;20125;-82
2022/10/03 12:54:09;;;;;;;1999.90;999.90;;;22.00;99.90;;;;;;4993999;28;20038;-82
2022/10/03 12:57:28;;;;;;;1999.90;999.90;;;21.80;99.90;;;;;;5007497;28;20471;-78
2022/10/03 13:00:15;;;;;;;1999.90;999.90;;;21.70;99.90;;;;;;4925141;29;20559;-79
2022/10/03 13:02:57;;;;;;;1999.90;999.90;;;21.70;99.90;;;;;;4987256;28;20038;-78
2022/10/03 13:05:36;;;;;;;1999.90;999.90;;;21.80;99.90;;;;;;4984852;28;20026;-78
2022/10/03 13:08:39;;;;;;;1999.90;999.90;;;21.90;99.90;;;;;;4987943;28;20050;-78
2022/10/03 13:11:10;;;;;;;1999.90;999.90;;;21.90;99.90;;;;;;4984201;28;20109;-77
2022/10/03 13:14:12;;;;;;;1999.90;999.90;;;21.90;99.90;;;;;;4987283;28;20042;-78
2022/10/03 13:17:35;;;;;;;1999.90;999.90;;;21.70;99.90;;;;;;4984020;28;20022;-74
2022/10/03 13:20:04;;;;;;;1999.90;999.90;;;21.50;99.90;;;;;;4990715;28;20042;-82
2022/10/03 13:22:51;;;;;;;1999.90;999.90;;;21.30;99.90;;;;;;4986097;28;20038;-80
2022/10/03 13:25:38;;;;;;;1999.90;999.90;;;21.70;99.90;;;;;;4988975;28;20042;-80
2022/10/03 13:28:47;;;;;;;1999.90;999.90;;;22.60;99.90;;;;;;4987254;28;20109;-78
2022/10/03 13:31:22;;;;;;;1999.90;999.90;;;23.50;99.90;;;;;;4965232;28;20113;-78
2022/10/03 13:33:54;;;;;;;1999.90;999.90;;;24.40;99.90;;;;;;4986722;28;20030;-79
2022/10/03 13:36:43;;;;;;;1999.90;999.90;;;25.00;99.90;;;;;;4984880;28;20030;-81
2022/10/03 13:39:11;;;;;;;1999.90;999.90;;;24.70;99.90;;;;;;4985567;28;20611;-80
2022/10/03 13:41:46;;;;;;;1999.90;999.90;;;24.30;99.90;;;;;;4986714;28;20046;-78